createdAt,value
2023-05-05T00:01:24.500Z,97076.72
2023-05-05T00:03:50.913Z,97074.00
2023-05-05T00:06:17.229Z,97072.97
2023-05-05T00:08:43.490Z,97075.97
2023-05-05T00:11:09.743Z,97075.22
2023-05-05T00:13:36.030Z,97077.19
2023-05-05T00:16:02.295Z,97080.47
2023-05-05T00:18:28.588Z,97080.53
2023-05-05T00:20:54.839Z,97079.81
2023-05-05T00:23:21.120Z,97076.34
2023-05-05T00:25:47.380Z,97070.44
2023-05-05T00:28:13.643Z,97079.13
2023-05-05T00:30:39.899Z,97070.50
2023-05-05T00:33:06.152Z,97070.56
2023-05-05T00:35:32.417Z,97067.84
2023-05-05T00:37:58.694Z,97067.31
2023-05-05T00:40:24.984Z,97067.97
2023-05-05T00:42:51.255Z,97069.13
2023-05-05T00:45:17.545Z,97063.75
2023-05-05T00:47:43.809Z,97056.78
2023-05-05T00:50:10.152Z,97064.97
2023-05-05T00:52:36.416Z,97063.34
2023-05-05T00:55:02.670Z,97059.91
2023-05-05T00:57:28.974Z,97061.25
2023-05-05T00:59:55.264Z,97061.25
2023-05-05T01:02:21.505Z,97059.63
2023-05-05T01:04:47.756Z,97057.00
2023-05-05T01:07:14.025Z,97055.94
2023-05-05T01:09:40.284Z,97061.13
2023-05-05T01:12:06.546Z,97062.50
2023-05-05T01:14:32.812Z,97057.44
2023-05-05T01:16:59.078Z,97052.81
2023-05-05T01:19:25.329Z,97059.84
2023-05-05T01:21:51.597Z,97051.22
2023-05-05T01:24:17.836Z,97053.41
2023-05-05T01:26:44.073Z,97060.19
2023-05-05T01:29:10.331Z,97055.59
2023-05-05T01:31:36.640Z,97064.78
2023-05-05T01:34:02.930Z,97054.81
2023-05-05T01:36:29.167Z,97061.03
2023-05-05T01:38:55.437Z,97051.31
2023-05-05T01:41:21.736Z,97051.31
2023-05-05T01:43:47.994Z,97049.13
2023-05-05T01:46:14.344Z,97052.34
2023-05-05T01:48:42.298Z,97053.50
2023-05-05T01:51:08.669Z,97054.53
2023-05-05T01:53:34.918Z,97059.66
2023-05-05T01:56:01.183Z,97056.38
2023-05-05T01:58:27.511Z,97054.78
2023-05-05T02:00:53.849Z,97061.56
2023-05-05T02:03:20.341Z,97061.56
2023-05-05T02:05:46.682Z,97058.03
2023-05-05T02:08:13.012Z,97059.22
2023-05-05T02:10:39.352Z,97051.75
2023-05-05T02:13:05.715Z,97045.31
2023-05-05T02:15:32.044Z,97052.91
2023-05-05T02:17:58.354Z,97051.00
2023-05-05T02:20:24.641Z,97048.31
2023-05-05T02:22:50.906Z,97046.41
2023-05-05T02:25:17.268Z,97047.50
2023-05-05T02:27:43.540Z,97050.75
2023-05-05T02:30:10.024Z,97051.03
2023-05-05T02:32:36.564Z,97050.81
2023-05-05T02:35:02.908Z,97048.63
2023-05-05T02:37:29.154Z,97051.31
2023-05-05T02:39:55.426Z,97048.63
2023-05-05T02:42:21.710Z,97048.34
2023-05-05T02:44:47.980Z,97049.97
2023-05-05T02:47:14.238Z,97050.25
2023-05-05T02:49:40.494Z,97048.16
2023-05-05T02:52:06.786Z,97057.34
2023-05-05T02:54:33.041Z,97047.91
2023-05-05T02:56:59.346Z,97045.47
2023-05-05T02:59:25.654Z,97044.97
2023-05-05T03:01:51.954Z,97041.22
2023-05-05T03:04:18.296Z,97046.09
2023-05-05T03:06:44.560Z,97039.34
2023-05-05T03:09:10.830Z,97040.97
2023-05-05T03:11:37.094Z,97041.25
2023-05-05T03:14:03.375Z,97040.44
2023-05-05T03:16:29.627Z,97039.34
2023-05-05T03:18:55.880Z,97029.63
2023-05-05T03:21:22.151Z,97035.03
2023-05-05T03:23:48.402Z,97030.44
2023-05-05T03:26:14.759Z,97036.66
2023-05-05T03:28:41.022Z,97038.31
2023-05-05T03:31:07.272Z,97035.09
2023-05-05T03:33:33.575Z,97033.78
2023-05-05T03:35:59.849Z,97030.31
2023-05-05T03:38:26.119Z,97035.75
2023-05-05T03:40:52.394Z,97029.81
2023-05-05T03:43:18.675Z,97036.03
2023-05-05T03:45:44.929Z,97043.59
2023-05-05T03:48:11.208Z,97042.78
2023-05-05T03:50:37.492Z,97048.22
2023-05-05T03:53:03.778Z,97043.94
2023-05-05T03:55:30.041Z,97038.56
2023-05-05T03:57:56.298Z,97036.69
2023-05-05T04:00:22.543Z,97039.97
2023-05-05T04:02:48.920Z,97043.22
2023-05-05T04:05:15.224Z,97045.09
2023-05-05T04:07:41.519Z,97040.25
2023-05-05T04:10:07.924Z,97037.31
2023-05-05T04:12:34.367Z,97030.59
2023-05-05T04:15:00.630Z,97038.41
2023-05-05T04:17:26.952Z,97027.66
2023-05-05T04:19:53.250Z,97040.34
2023-05-05T04:22:19.513Z,97037.66
2023-05-05T04:24:45.754Z,97039.03
2023-05-05T04:27:12.032Z,97035.00
2023-05-05T04:29:38.300Z,97035.81
2023-05-05T04:32:04.550Z,97036.91
2023-05-05T04:34:30.849Z,97034.19
2023-05-05T04:36:57.119Z,97035.50
2023-05-05T04:39:23.384Z,97024.44
2023-05-05T04:41:49.642Z,97024.16
2023-05-05T04:44:15.899Z,97029.00
2023-05-05T04:46:42.205Z,97024.44
2023-05-05T04:49:08.528Z,97027.94
2023-05-05T04:51:34.789Z,97031.16
2023-05-05T04:54:01.104Z,97035.22
2023-05-05T04:56:27.447Z,97025.50
2023-05-05T04:58:53.709Z,97028.47
2023-05-05T05:01:20.043Z,97033.84
2023-05-05T05:03:46.422Z,97032.25
2023-05-05T05:06:12.767Z,97027.09
2023-05-05T05:08:39.032Z,97025.75
2023-05-05T05:11:05.314Z,97024.38
2023-05-05T05:13:31.569Z,97032.72
2023-05-05T05:15:57.880Z,97034.88
2023-05-05T05:18:24.191Z,97031.09
2023-05-05T05:20:50.465Z,97039.97
2023-05-05T05:23:16.739Z,97036.69
2023-05-05T05:25:43.005Z,97036.16
2023-05-05T05:28:10.816Z,97045.84
2023-05-05T05:30:37.341Z,97045.06
2023-05-05T05:33:03.649Z,97042.66
2023-05-05T05:35:30.004Z,97044.81
2023-05-05T05:37:56.260Z,97048.34
2023-05-05T05:40:22.538Z,97057.25
2023-05-05T05:42:48.838Z,97052.94
2023-05-05T05:45:15.124Z,97057.50
2023-05-05T05:47:41.453Z,97058.59
2023-05-05T05:50:07.937Z,97058.34
2023-05-05T05:52:34.464Z,97059.69
2023-05-05T05:55:00.740Z,97062.16
2023-05-05T05:57:27.006Z,97058.66
2023-05-05T05:59:53.303Z,97060.81
2023-05-05T06:02:19.587Z,97064.84
2023-05-05T06:04:45.882Z,97067.53
2023-05-05T06:07:12.132Z,97065.63
2023-05-05T06:09:38.401Z,97063.97
2023-05-05T06:12:04.729Z,97061.78
2023-05-05T06:14:30.974Z,97064.97
2023-05-05T06:16:57.215Z,97068.19
2023-05-05T06:19:23.474Z,97065.97
2023-05-05T06:21:49.753Z,97054.88
2023-05-05T06:24:16.008Z,97060.75
2023-05-05T06:26:42.289Z,97057.22
2023-05-05T06:29:10.425Z,97063.13
2023-05-05T06:31:38.150Z,97062.00
2023-05-05T06:34:04.494Z,97067.66
2023-05-05T06:36:30.813Z,97067.91
2023-05-05T06:38:57.164Z,97064.88
2023-05-05T06:41:23.414Z,97064.03
2023-05-05T06:43:49.673Z,97062.91
2023-05-05T06:46:16.048Z,97060.97
2023-05-05T06:48:42.368Z,97065.25
2023-05-05T06:51:08.631Z,97057.84
2023-05-05T06:53:34.921Z,97052.41
2023-05-05T06:56:01.209Z,97058.28
2023-05-05T06:58:27.454Z,97057.72
2023-05-05T07:00:53.744Z,97053.06
2023-05-05T07:03:20.092Z,97056.53
2023-05-05T07:05:46.434Z,97050.78
2023-05-05T07:08:12.701Z,97055.84
2023-05-05T07:10:38.984Z,97052.03
2023-05-05T07:13:05.324Z,97049.53
2023-05-05T07:15:31.627Z,97042.97
2023-05-05T07:17:58.228Z,97043.22
2023-05-05T07:20:24.878Z,97046.38
2023-05-05T07:22:51.148Z,97039.28
2023-05-05T07:25:17.419Z,97039.00
2023-05-05T07:27:43.809Z,97031.91
2023-05-05T07:30:14.099Z,97044.00
2023-05-05T07:32:42.805Z,97036.97
2023-05-05T07:35:09.109Z,97032.66
2023-05-05T07:37:35.400Z,97039.03
2023-05-05T07:40:01.646Z,97036.69
2023-05-05T07:42:27.907Z,97035.38
2023-05-05T07:44:54.184Z,97033.97
2023-05-05T07:47:20.452Z,97032.31
2023-05-05T07:49:46.736Z,97035.16
2023-05-05T07:52:13.018Z,97027.63
2023-05-05T07:54:39.283Z,97035.22
2023-05-05T07:57:05.532Z,97023.81
2023-05-05T07:59:31.819Z,97026.69
2023-05-05T08:01:58.088Z,97028.22
2023-05-05T08:04:24.374Z,97024.94
2023-05-05T08:06:50.661Z,97022.44
2023-05-05T08:09:16.961Z,97017.53
2023-05-05T08:11:43.230Z,97020.69
2023-05-05T08:14:09.494Z,97016.66
2023-05-05T08:16:35.770Z,97015.78
2023-05-05T08:19:02.123Z,97004.38
2023-05-05T08:21:28.392Z,97013.91
2023-05-05T08:23:54.635Z,97010.31
2023-05-05T08:26:20.911Z,97014.03
2023-05-05T08:28:47.199Z,97013.38
2023-05-05T08:31:13.522Z,97008.47
2023-05-05T08:33:39.823Z,97013.31
2023-05-05T08:36:06.095Z,97018.94
2023-05-05T08:38:32.354Z,97014.25
2023-05-05T08:40:58.646Z,97016.78
2023-05-05T08:43:24.919Z,97014.97
2023-05-05T08:45:51.173Z,97005.94
2023-05-05T08:48:17.415Z,97009.56
2023-05-05T08:50:43.691Z,96999.72
2023-05-05T08:53:09.970Z,97000.44
2023-05-05T08:55:36.224Z,96995.44
2023-05-05T08:58:02.495Z,96993.34
2023-05-05T09:00:28.785Z,96988.13
2023-05-05T09:02:55.126Z,96983.75
2023-05-05T09:05:21.439Z,96998.09
2023-05-05T09:07:47.721Z,96984.44
2023-05-05T09:10:14.000Z,96991.38
2023-05-05T09:12:40.370Z,96987.25
2023-05-05T09:15:06.926Z,96984.56
2023-05-05T09:17:33.402Z,96978.91
2023-05-05T09:19:59.693Z,96984.56
2023-05-05T09:22:25.961Z,96988.56
2023-05-05T09:24:52.250Z,96990.19
2023-05-05T09:27:18.489Z,96996.81
2023-05-05T09:29:44.771Z,96985.88
2023-05-05T09:32:11.110Z,96985.44
2023-05-05T09:34:37.472Z,96987.78
2023-05-05T09:37:03.760Z,96989.97
2023-05-05T09:39:30.022Z,96986.34
2023-05-05T09:41:56.288Z,96979.13
2023-05-05T09:44:22.576Z,96969.38
2023-05-05T09:46:48.910Z,96971.28
2023-05-05T09:49:15.269Z,96966.47
2023-05-05T09:51:41.555Z,96963.06
2023-05-05T09:54:07.821Z,96961.03
2023-05-05T09:56:34.081Z,96958.03
2023-05-05T09:59:00.384Z,96959.53
2023-05-05T10:01:26.674Z,96956.00
2023-05-05T10:03:52.996Z,96953.59
2023-05-05T10:06:19.262Z,96958.91
2023-05-05T10:08:45.545Z,96950.47
2023-05-05T10:11:11.806Z,96955.81
2023-05-05T10:13:38.084Z,96953.28
2023-05-05T10:16:04.419Z,96958.41
2023-05-05T10:18:30.768Z,96955.19
2023-05-05T10:20:57.046Z,96947.75
2023-05-05T10:23:23.300Z,96954.78
2023-05-05T10:25:49.584Z,96960.22
2023-05-05T10:28:15.873Z,96952.56
2023-05-05T10:30:42.183Z,96947.44
2023-05-05T10:35:39.822Z,96950.34
2023-05-05T10:38:06.120Z,96948.75
2023-05-05T10:40:32.400Z,96941.91
2023-05-05T10:42:58.663Z,96946.72
2023-05-05T10:45:25.053Z,96945.81
2023-05-05T10:47:51.359Z,96948.09
2023-05-05T10:50:17.617Z,96935.53
2023-05-05T10:52:43.920Z,96935.94
2023-05-05T10:55:10.177Z,96937.00
2023-05-05T10:57:36.459Z,96927.13
2023-05-05T11:00:02.747Z,96926.69
2023-05-05T11:02:29.185Z,96921.94
2023-05-05T11:04:55.636Z,96923.31
2023-05-05T11:07:21.913Z,96920.47
2023-05-05T11:09:48.180Z,96920.50
2023-05-05T11:12:14.492Z,96923.75
2023-05-05T11:14:40.763Z,96917.06
2023-05-05T11:17:07.045Z,96907.00
2023-05-05T11:19:33.372Z,96913.63
2023-05-05T11:21:59.653Z,96907.56
2023-05-05T11:24:26.006Z,96906.00
2023-05-05T11:26:52.386Z,96910.34
2023-05-05T11:29:18.728Z,96895.97
2023-05-05T11:31:45.002Z,96896.91
2023-05-05T11:34:11.258Z,96894.19
2023-05-05T11:36:37.527Z,96897.88
2023-05-05T11:39:03.868Z,96890.56
2023-05-05T11:41:30.159Z,96884.19
2023-05-05T11:43:56.438Z,96881.81
2023-05-05T11:46:22.735Z,96885.78
2023-05-05T11:48:49.005Z,96884.69
2023-05-05T11:51:15.267Z,96884.69
2023-05-05T11:53:41.525Z,96881.81
2023-05-05T11:56:07.773Z,96876.56
2023-05-05T11:58:34.052Z,96873.22
2023-05-05T12:01:00.299Z,96880.47
2023-05-05T12:03:26.915Z,96876.47
2023-05-05T12:05:53.467Z,96868.94
2023-05-05T12:08:19.746Z,96868.97
2023-05-05T12:10:46.008Z,96868.31
2023-05-05T12:13:12.810Z,96860.63
2023-05-05T12:15:39.128Z,96865.25
2023-05-05T12:18:05.450Z,96866.22
2023-05-05T12:20:31.760Z,96863.97
2023-05-05T12:22:58.038Z,96869.44
2023-05-05T12:25:24.310Z,96856.59
2023-05-05T12:27:50.580Z,96858.03
2023-05-05T12:30:16.956Z,96866.22
2023-05-05T12:32:43.389Z,96857.88
2023-05-05T12:35:09.744Z,96863.78
2023-05-05T12:37:35.999Z,96850.28
2023-05-05T12:40:02.267Z,96855.56
2023-05-05T12:42:28.545Z,96856.84
2023-05-05T12:44:54.829Z,96851.53
2023-05-05T12:47:21.095Z,96840.28
2023-05-05T12:49:47.363Z,96842.97
2023-05-05T12:52:13.632Z,96837.00
2023-05-05T12:54:39.896Z,96833.47
2023-05-05T12:57:06.133Z,96831.69
2023-05-05T12:59:32.418Z,96826.84
2023-05-05T13:01:58.749Z,96823.88
2023-05-05T13:04:25.079Z,96826.41
2023-05-05T13:06:52.986Z,96824.50
2023-05-05T13:09:20.307Z,96816.34
2023-05-05T13:11:46.587Z,96810.28
2023-05-05T13:14:12.866Z,96812.97
2023-05-05T13:16:39.128Z,96801.00
2023-05-05T13:19:05.437Z,96801.94
2023-05-05T13:21:31.786Z,96805.22
2023-05-05T13:24:05.067Z,96804.28
2023-05-05T13:26:38.604Z,96805.34
2023-05-05T13:29:04.873Z,96797.09
2023-05-05T13:31:31.166Z,96796.03
2023-05-05T13:33:57.444Z,96792.25
2023-05-05T13:36:23.719Z,96787.25
2023-05-05T13:38:50.018Z,96790.66
2023-05-05T13:41:16.296Z,96788.84
2023-05-05T13:43:42.549Z,96781.84
2023-05-05T13:46:19.278Z,96782.66
2023-05-05T13:48:46.682Z,96777.84
2023-05-05T13:51:13.018Z,96770.72
2023-05-05T13:53:39.267Z,96770.72
2023-05-05T13:56:05.524Z,96765.38
2023-05-05T13:58:31.766Z,96759.56
2023-05-05T14:00:58.048Z,96766.75
2023-05-05T14:03:24.362Z,96761.13
2023-05-05T14:05:50.644Z,96776.66
2023-05-05T14:08:16.914Z,96763.22
2023-05-05T14:10:44.771Z,96758.53
2023-05-05T14:13:12.321Z,96755.59
2023-05-05T14:15:38.689Z,96756.41
2023-05-05T14:18:04.972Z,96750.47
2023-05-05T14:20:31.232Z,96754.59
2023-05-05T14:22:57.521Z,96746.28
2023-05-05T14:25:24.821Z,96740.47
2023-05-05T14:27:51.123Z,96750.84
2023-05-05T14:30:17.383Z,96746.59
2023-05-05T14:32:43.705Z,96748.56
2023-05-05T14:35:10.124Z,96736.34
2023-05-05T14:37:36.448Z,96734.41
2023-05-05T14:40:04.972Z,96740.91
2023-05-05T14:42:32.062Z,96738.72
2023-05-05T14:44:58.324Z,96735.44
2023-05-05T14:47:24.611Z,96741.47
2023-05-05T14:49:50.902Z,96736.91
2023-05-05T14:52:17.173Z,96739.69
2023-05-05T14:54:43.473Z,96735.53
2023-05-05T14:57:09.744Z,96733.22
2023-05-05T14:59:36.014Z,96734.38
2023-05-05T15:02:02.348Z,96742.34
2023-05-05T15:04:28.670Z,96740.53
2023-05-05T15:06:54.980Z,96745.69
2023-05-05T15:09:21.240Z,96748.50
2023-05-05T15:11:47.529Z,96740.38
2023-05-05T15:14:13.784Z,96747.34
2023-05-05T15:16:40.222Z,96761.00
2023-05-05T15:19:06.663Z,96748.31
2023-05-05T15:21:32.940Z,96752.66
2023-05-05T15:23:59.209Z,96756.56
2023-05-05T15:26:25.501Z,96756.06
2023-05-05T15:28:51.775Z,96746.56
2023-05-05T15:31:18.060Z,96759.56
2023-05-05T15:33:44.341Z,96758.50
2023-05-05T15:36:10.605Z,96752.31
2023-05-05T15:38:36.911Z,96758.78
2023-05-05T15:41:03.162Z,96750.38
2023-05-05T15:43:29.429Z,96749.22
2023-05-05T15:45:55.791Z,96752.69
2023-05-05T15:48:22.056Z,96759.31
2023-05-05T15:50:48.339Z,96755.25
2023-05-05T15:53:14.621Z,96768.88
2023-05-05T15:55:40.915Z,96759.19
2023-05-05T15:58:07.203Z,96772.00
2023-05-05T16:00:33.473Z,96769.50
2023-05-05T16:02:59.887Z,96772.47
2023-05-05T16:05:26.214Z,96770.34
2023-05-05T16:07:52.492Z,96775.47
2023-05-05T16:10:18.790Z,96775.13
2023-05-05T16:12:45.089Z,96771.03
2023-05-05T16:15:11.555Z,96774.00
2023-05-05T16:17:38.106Z,96777.16
2023-05-05T16:20:04.420Z,96776.38
2023-05-05T16:22:30.707Z,96779.19
2023-05-05T16:24:56.958Z,96784.06
2023-05-05T16:27:23.220Z,96782.69
2023-05-05T16:29:49.513Z,96789.38
2023-05-05T16:32:15.783Z,96792.50
2023-05-05T16:34:42.062Z,96777.16
2023-05-05T16:37:08.337Z,96783.50
2023-05-05T16:39:34.616Z,96779.03
2023-05-05T16:42:00.901Z,96786.69
2023-05-05T16:44:27.159Z,96784.13
2023-05-05T16:46:53.490Z,96791.50
2023-05-05T16:49:19.759Z,96781.16
2023-05-05T16:51:46.040Z,96779.69
2023-05-05T16:54:12.464Z,96784.97
2023-05-05T16:56:38.742Z,96782.53
2023-05-05T16:59:05.022Z,96786.31
2023-05-05T17:01:31.302Z,96787.81
2023-05-05T17:03:57.575Z,96783.00
2023-05-05T17:06:23.834Z,96778.91
2023-05-05T17:08:50.122Z,96774.34
2023-05-05T17:11:16.393Z,96777.81
2023-05-05T17:13:42.652Z,96770.78
2023-05-05T17:16:08.958Z,96772.53
2023-05-05T17:18:35.269Z,96778.91
2023-05-05T17:21:01.544Z,96771.97
2023-05-05T17:23:27.827Z,96770.78
2023-05-05T17:25:54.095Z,96791.31
2023-05-05T17:28:20.366Z,96783.09
2023-05-05T17:30:46.645Z,96783.81
2023-05-05T17:33:12.926Z,96784.63
2023-05-05T17:35:39.201Z,96790.09
2023-05-05T17:38:05.471Z,96788.25
2023-05-05T17:40:31.801Z,96789.91
2023-05-05T17:42:58.109Z,96787.97
2023-05-05T17:45:24.361Z,96797.34
2023-05-05T17:47:50.709Z,96793.63
2023-05-05T17:50:16.993Z,96797.91
2023-05-05T17:52:43.286Z,96803.22
2023-05-05T17:55:09.714Z,96800.16
2023-05-05T17:57:36.125Z,96806.25
2023-05-05T18:00:02.382Z,96802.41
2023-05-05T18:02:28.689Z,96809.19
2023-05-05T18:04:55.025Z,96811.41
2023-05-05T18:07:21.293Z,96810.75
2023-05-05T18:09:47.545Z,96816.69
2023-05-05T18:12:13.825Z,96823.47
2023-05-05T18:14:40.091Z,96824.75
2023-05-05T18:17:06.412Z,96826.81
2023-05-05T18:19:32.692Z,96835.63
2023-05-05T18:21:58.958Z,96842.81
2023-05-05T18:24:25.214Z,96838.50
2023-05-05T18:26:51.477Z,96838.03
2023-05-05T18:29:17.746Z,96834.50
2023-05-05T18:31:44.084Z,96837.22
2023-05-05T18:34:10.490Z,96840.59
2023-05-05T18:36:36.757Z,96841.25
2023-05-05T18:39:03.087Z,96841.75
2023-05-05T18:41:29.372Z,96847.38
2023-05-05T18:43:55.661Z,96844.19
2023-05-05T18:46:21.962Z,96847.91
2023-05-05T18:48:48.319Z,96847.94
2023-05-05T18:51:14.605Z,96846.84
2023-05-05T18:53:40.874Z,96848.59
2023-05-05T18:56:07.172Z,96847.94
2023-05-05T18:58:33.425Z,96855.31
2023-05-05T19:00:59.763Z,96856.44
2023-05-05T19:03:26.076Z,96850.69
2023-05-05T19:05:52.340Z,96855.31
2023-05-05T19:08:18.607Z,96846.84
2023-05-05T19:10:44.890Z,96853.09
2023-05-05T19:13:11.281Z,96854.22
2023-05-05T19:15:37.625Z,96859.66
2023-05-05T19:18:03.994Z,96867.34
2023-05-05T19:20:30.291Z,96863.19
2023-05-05T19:22:56.556Z,96868.47
2023-05-05T19:25:22.839Z,96870.41
2023-05-05T19:27:49.115Z,96872.47
2023-05-05T19:30:15.395Z,96870.72
2023-05-05T19:32:41.688Z,96858.22
2023-05-05T19:35:08.093Z,96862.84
2023-05-05T19:37:34.640Z,96871.03
2023-05-05T19:40:00.938Z,96882.56
2023-05-05T19:42:27.240Z,96882.38
2023-05-05T19:44:53.514Z,96887.34
2023-05-05T19:47:19.774Z,96891.19
2023-05-05T19:49:46.024Z,96884.47
2023-05-05T19:52:12.289Z,96880.72
2023-05-05T19:54:38.557Z,96881.38
2023-05-05T19:57:04.844Z,96885.22
2023-05-05T19:59:31.109Z,96887.94
2023-05-05T20:01:57.648Z,96885.84
2023-05-05T20:04:24.028Z,96893.19
2023-05-05T20:06:50.360Z,96885.16
2023-05-05T20:09:16.716Z,96886.91
2023-05-05T20:11:42.987Z,96888.34
2023-05-05T20:14:09.257Z,96885.78
2023-05-05T20:16:35.697Z,96877.25
2023-05-05T20:19:02.091Z,96887.16
2023-05-05T20:21:28.345Z,96882.97
2023-05-05T20:23:54.653Z,96880.56
2023-05-05T20:26:20.941Z,96886.28
2023-05-05T20:28:47.207Z,96893.47
2023-05-05T20:31:13.535Z,96885.72
2023-05-05T20:33:39.849Z,96885.69
2023-05-05T20:36:06.141Z,96887.59
2023-05-05T20:38:32.462Z,96889.03
2023-05-05T20:40:58.726Z,96889.03
2023-05-05T20:43:25.012Z,96895.09
2023-05-05T20:45:51.267Z,96901.16
2023-05-05T20:48:17.611Z,96898.56
2023-05-05T20:50:43.864Z,96891.06
2023-05-05T20:53:10.101Z,96903.91
2023-05-05T20:55:36.354Z,96909.41
2023-05-05T20:58:02.604Z,96905.41
2023-05-05T21:00:28.860Z,96908.84
2023-05-05T21:02:55.319Z,96910.78
2023-05-05T21:05:21.678Z,96908.28
2023-05-05T21:07:47.949Z,96903.47
2023-05-05T21:10:14.245Z,96903.41
2023-05-05T21:12:40.573Z,96895.88
2023-05-05T21:15:07.097Z,96894.94
2023-05-05T21:17:33.722Z,96897.66
2023-05-05T21:20:00.050Z,96898.47
2023-05-05T21:22:26.326Z,96892.22
2023-05-05T21:24:52.620Z,96887.09
2023-05-05T21:27:19.082Z,96887.59
2023-05-05T21:29:45.401Z,96889.22
2023-05-05T21:32:11.698Z,96890.94
2023-05-05T21:34:38.016Z,96887.53
2023-05-05T21:37:04.291Z,96887.84
2023-05-05T21:39:30.693Z,96894.97
2023-05-05T21:41:56.978Z,96897.19
2023-05-05T21:44:23.270Z,96893.78
2023-05-05T21:46:49.546Z,96904.88
2023-05-05T21:49:15.819Z,96906.88
2023-05-05T21:51:42.094Z,96911.41
2023-05-05T21:54:08.357Z,96910.78
2023-05-05T21:56:34.648Z,96909.84
2023-05-05T21:59:00.921Z,96891.28
2023-05-05T22:01:27.210Z,96883.84
2023-05-05T22:03:53.578Z,96883.25
2023-05-05T22:06:19.956Z,96873.22
2023-05-05T22:08:46.221Z,96866.88
2023-05-05T22:11:12.465Z,96866.88
2023-05-05T22:13:38.740Z,96868.28
2023-05-05T22:16:05.014Z,96870.38
2023-05-05T22:18:31.301Z,96872.03
2023-05-05T22:20:57.604Z,96877.22
2023-05-05T22:23:23.910Z,96878.53
2023-05-05T22:25:50.188Z,96878.53
2023-05-05T22:28:16.444Z,96873.00
2023-05-05T22:30:42.699Z,96877.22
2023-05-05T22:33:09.021Z,96867.47
2023-05-05T22:35:35.364Z,96874.50
2023-05-05T22:38:01.639Z,96878.72
2023-05-05T22:40:27.940Z,96873.88
2023-05-05T22:42:54.222Z,96868.97
2023-05-05T22:45:20.496Z,96866.47
2023-05-05T22:47:46.835Z,96862.66
2023-05-05T22:50:13.139Z,96868.59
2023-05-05T22:52:39.408Z,96865.06
2023-05-05T22:55:05.674Z,96871.09
2023-05-05T22:57:31.931Z,96876.50
2023-05-05T22:59:58.216Z,96871.88
2023-05-05T23:02:24.507Z,96870.84
2023-05-05T23:04:50.792Z,96872.69
2023-05-05T23:07:17.060Z,96880.25
2023-05-05T23:09:43.303Z,96868.28
2023-05-05T23:12:09.577Z,96878.06
2023-05-05T23:14:35.852Z,96875.09
2023-05-05T23:17:02.255Z,96874.88
2023-05-05T23:19:28.625Z,96871.72
2023-05-05T23:21:54.897Z,96873.19
2023-05-05T23:24:21.189Z,96872.16
2023-05-05T23:26:47.471Z,96882.06
2023-05-05T23:29:13.716Z,96875.41
2023-05-05T23:31:39.978Z,96886.03
2023-05-05T23:34:06.280Z,96872.72
2023-05-05T23:36:32.549Z,96872.94
2023-05-05T23:38:58.845Z,96876.09
2023-05-05T23:41:25.137Z,96876.16
2023-05-05T23:43:51.384Z,96871.03
2023-05-05T23:46:17.657Z,96869.66
2023-05-05T23:48:43.966Z,96870.47
2023-05-05T23:51:10.240Z,96866.22
2023-05-05T23:53:36.508Z,96869.16
2023-05-05T23:56:02.778Z,96868.34
2023-05-05T23:58:29.077Z,96867.47
